Terminal Aerodrome Forecast
Issued by NWS

Home | Current Version | Previous Version | Text Only | Print | Product List | Glossary Off
Versions: 1 2 3 4 5 6 7 8 9 10 11 12 13 14 15 16 17

200
FTUS43 KICT 152156 AAA
TAFSLN
TAF AMD
KSLN 152156Z 1522/1618 16014G22KT P6SM VCTS SCT060CB BKN100
     FM160400 16012KT P6SM SCT070
     FM160800 16010KT P6SM VCTS SCT060CB BKN250
     FM161300 18007KT P6SM BKN050=

USA.gov is the U.S. government's official web portal to all federal, state and local government web resources and services.